PILOTS ONLINE: 354    ATC ONLINE: 62

Location

IATA OTH
City North Bend
Country  United States
Latitude 43° 25' 1" N
Longitude 124° 14' 45" W
Elevation 17 ft
Type Medium Airport

Weather

METAR
2014/07/10 01:35
KOTH 100135Z 36023G31KT 10SM FEW015 17/13 A2998 RMK AO1
TAF
2014/07/09 18:39
TAF KOTH 091735Z 0918/1018 36025G32KT P6SM FEW015 
     FM100300 36018G25KT P6SM FEW008 OVC012 
     FM100800 36010KT P6SM OVC008 
     FM101700 36015G25KT P6SM BKN012

Runways

04/22 5321 ft / 150 ft
13/31 4471 ft / 150 ft

Outbound flights

Inbound flights


Spotted incorrect airport information? Please login with your VATSIM ID.